Time;durP1;ratioP1;P1;durP2;ratioP2;P2;SDS_P1;SDS_P2;PMS_P1;PMS_P2;Temp;Humidity;BMP_temperature;BMP_pressure;BME280_temperature;BME280_humidity;BME280_pressure;Samples;Min_cycle;Max_cycle;Signal;HPM_P1;HPM_P2
2021/01/14 00:00:22;;;;;;;12.20;6.70;;;3.40;99.90;;;;;;5076807;28;20039;-74
2021/01/14 00:02:47;;;;;;;10.48;5.78;;;3.40;99.90;;;;;;5069066;28;20032;-74
2021/01/14 00:05:13;;;;;;;14.32;6.95;;;3.40;99.90;;;;;;5078694;28;20841;-74
2021/01/14 00:07:39;;;;;;;11.82;6.45;;;3.40;99.90;;;;;;5074558;28;20036;-74
2021/01/14 00:10:06;;;;;;;12.60;6.95;;;3.40;99.90;;;;;;5074998;28;20086;-74
2021/01/14 00:12:37;;;;;;;12.55;7.00;;;3.40;99.90;;;;;;5076787;28;20063;-74
2021/01/14 00:15:04;;;;;;;11.07;6.30;;;3.50;99.90;;;;;;5069930;28;20023;-74
2021/01/14 00:17:32;;;;;;;13.23;7.25;;;3.40;99.90;;;;;;5075085;28;20025;-74
2021/01/14 00:19:58;;;;;;;13.32;6.93;;;3.40;99.90;;;;;;5074185;28;20062;-74
2021/01/14 00:22:29;;;;;;;11.55;6.78;;;3.40;99.90;;;;;;5075254;28;20024;-74
2021/01/14 00:24:55;;;;;;;12.32;6.97;;;3.40;99.90;;;;;;5074003;28;20041;-74
2021/01/14 00:27:22;;;;;;;10.20;6.32;;;3.40;99.90;;;;;;5075186;28;20035;-73
2021/01/14 00:29:50;;;;;;;10.05;6.57;;;3.40;99.90;;;;;;5073397;28;20046;-73
2021/01/14 00:32:18;;;;;;;14.07;6.90;;;3.40;99.90;;;;;;5074935;28;20043;-73
2021/01/14 00:34:44;;;;;;;9.75;6.25;;;3.40;99.90;;;;;;5075994;28;20457;-74
2021/01/14 00:39:57;;;;;;;11.68;6.63;;;3.40;99.90;;;;;;5059870;28;20051;-74
2021/01/14 00:42:25;;;;;;;11.23;6.93;;;3.40;99.90;;;;;;5075728;28;20020;-73
2021/01/14 00:44:51;;;;;;;12.73;7.13;;;3.40;99.90;;;;;;5074677;28;20020;-73
2021/01/14 00:47:16;;;;;;;10.85;6.95;;;3.40;99.90;;;;;;5084846;28;20090;-73
2021/01/14 00:49:42;;;;;;;12.88;6.68;;;3.50;99.90;;;;;;5075204;28;20070;-73
2021/01/14 00:52:13;;;;;;;9.60;6.60;;;3.50;99.90;;;;;;5074762;28;20047;-74
2021/01/14 00:54:39;;;;;;;10.43;6.65;;;3.50;99.90;;;;;;5072501;28;20541;-73
2021/01/14 00:57:09;;;;;;;9.27;6.38;;;3.50;99.90;;;;;;5073152;28;20040;-73
2021/01/14 00:59:35;;;;;;;12.18;6.22;;;3.50;99.90;;;;;;5075067;28;20085;-72
2021/01/14 01:02:05;;;;;;;10.60;6.45;;;3.50;99.90;;;;;;5073274;28;20023;-73
2021/01/14 01:04:36;;;;;;;10.98;6.57;;;3.50;99.90;;;;;;5074730;28;20032;-72
2021/01/14 01:07:05;;;;;;;10.57;6.50;;;3.50;99.90;;;;;;5057272;28;20077;-72
2021/01/14 01:09:31;;;;;;;11.05;6.57;;;3.50;99.90;;;;;;5058583;28;20764;-72
2021/01/14 01:11:59;;;;;;;11.60;6.65;;;3.50;99.90;;;;;;5075535;28;20029;-72
2021/01/14 01:14:25;;;;;;;11.02;6.20;;;3.50;99.90;;;;;;5075079;28;20025;-72
2021/01/14 01:16:54;;;;;;;12.38;7.05;;;3.50;99.90;;;;;;5073276;28;20028;-72
2021/01/14 01:19:20;;;;;;;15.55;7.20;;;3.50;99.90;;;;;;5059875;28;20370;-72
2021/01/14 01:21:48;;;;;;;13.10;6.95;;;3.40;99.90;;;;;;5074358;28;20035;-72
2021/01/14 01:24:16;;;;;;;11.48;6.82;;;3.30;99.90;;;;;;5073733;28;20050;-72
2021/01/14 01:26:49;;;;;;;11.82;6.30;;;3.30;99.90;;;;;;5073757;28;20362;-73
2021/01/14 01:29:15;;;;;;;12.40;6.55;;;3.30;99.90;;;;;;5058104;28;20035;-73
2021/01/14 01:31:43;;;;;;;10.82;5.88;;;3.20;99.90;;;;;;5055932;28;20032;-73
2021/01/14 01:34:09;;;;;;;13.98;5.60;;;3.20;99.90;;;;;;5074286;28;20824;-72
2021/01/14 01:36:35;;;;;;;10.27;5.53;;;3.20;99.90;;;;;;5075443;28;20031;-73
2021/01/14 01:39:03;;;;;;;9.55;5.13;;;3.20;99.90;;;;;;5072094;28;20408;-73
2021/01/14 01:41:29;;;;;;;10.25;5.22;;;3.20;99.90;;;;;;5076690;28;20036;-73
2021/01/14 01:43:57;;;;;;;12.07;5.20;;;3.20;99.90;;;;;;5073105;28;20497;-73
2021/01/14 01:46:29;;;;;;;9.52;4.95;;;3.10;99.90;;;;;;5069457;28;20030;-74
2021/01/14 01:48:56;;;;;;;11.30;5.50;;;3.10;99.90;;;;;;5073703;28;20127;-73
2021/01/14 01:51:22;;;;;;;12.35;4.82;;;3.10;99.90;;;;;;5068868;28;20031;-73
2021/01/14 01:53:48;;;;;;;8.93;4.60;;;3.10;99.90;;;;;;5073396;28;20068;-73
2021/01/14 01:56:17;;;;;;;10.55;4.63;;;3.10;99.90;;;;;;5068227;28;20023;-73
2021/01/14 01:58:44;;;;;;;7.68;4.18;;;3.10;99.90;;;;;;5073709;28;20077;-73
2021/01/14 02:01:14;;;;;;;8.85;4.20;;;3.10;99.90;;;;;;5061233;28;20032;-73
2021/01/14 02:03:40;;;;;;;9.93;3.72;;;3.00;99.90;;;;;;5067755;28;20498;-73
2021/01/14 02:06:10;;;;;;;8.98;3.70;;;3.00;99.90;;;;;;5077174;28;20024;-73
2021/01/14 02:08:55;;;;;;;7.70;3.70;;;3.00;99.90;;;;;;5077869;28;20491;-74
2021/01/14 02:11:33;;;;;;;10.98;3.80;;;2.90;99.90;;;;;;5062856;28;20032;-74
2021/01/14 02:14:18;;;;;;;8.70;3.38;;;2.90;99.90;;;;;;5079092;28;20123;-74
2021/01/14 02:16:50;;;;;;;8.25;3.38;;;2.80;99.90;;;;;;5072708;28;20036;-73
2021/01/14 02:19:25;;;;;;;6.78;2.70;;;2.70;99.90;;;;;;5072885;28;20028;-73
2021/01/14 02:22:17;;;;;;;9.00;3.15;;;2.80;99.90;;;;;;5073736;28;21456;-74
2021/01/14 02:24:59;;;;;;;8.05;3.08;;;2.70;99.90;;;;;;5061762;28;20086;-73
2021/01/14 02:27:25;;;;;;;9.20;3.40;;;2.70;99.90;;;;;;5077835;28;20022;-73
2021/01/14 02:29:53;;;;;;;9.15;3.10;;;2.70;99.90;;;;;;5077309;28;20047;-74
2021/01/14 02:32:23;;;;;;;9.73;3.53;;;2.70;99.90;;;;;;5059081;28;20036;-74
2021/01/14 02:34:53;;;;;;;10.43;3.10;;;2.70;99.90;;;;;;5079211;28;20056;-74
2021/01/14 02:37:19;;;;;;;8.30;3.15;;;2.60;99.90;;;;;;5078306;28;20036;-73
2021/01/14 02:39:49;;;;;;;10.43;3.13;;;2.60;99.90;;;;;;5076147;28;20031;-73
2021/01/14 02:42:15;;;;;;;6.70;2.70;;;2.70;99.90;;;;;;5076924;28;20031;-73
2021/01/14 02:44:43;;;;;;;6.97;2.80;;;2.60;99.90;;;;;;5077146;28;20024;-74
2021/01/14 02:47:11;;;;;;;7.82;2.78;;;2.60;99.90;;;;;;5076636;28;20043;-74
2021/01/14 02:49:49;;;;;;;8.18;2.70;;;2.60;99.90;;;;;;5041430;28;20086;-73
2021/01/14 02:52:22;;;;;;;9.05;3.15;;;2.60;99.90;;;;;;5072220;28;20024;-73
2021/01/14 02:54:47;;;;;;;6.85;3.00;;;2.60;99.90;;;;;;5062267;28;20016;-74
2021/01/14 02:57:13;;;;;;;8.10;2.80;;;2.60;99.90;;;;;;5061898;28;20230;-73
2021/01/14 02:59:42;;;;;;;7.13;3.08;;;2.50;99.90;;;;;;5064112;28;20069;-73
2021/01/14 03:02:07;;;;;;;9.02;3.05;;;2.60;99.90;;;;;;5076539;28;20474;-74
2021/01/14 03:04:33;;;;;;;8.07;2.53;;;2.50;99.90;;;;;;5076639;28;20035;-74
2021/01/14 03:06:59;;;;;;;7.35;2.80;;;2.50;99.90;;;;;;5075540;28;20043;-74
2021/01/14 03:09:25;;;;;;;8.25;2.90;;;2.50;99.90;;;;;;5071269;28;20049;-74
2021/01/14 03:11:55;;;;;;;8.80;2.60;;;2.50;99.90;;;;;;5078780;28;20358;-74
2021/01/14 03:14:25;;;;;;;8.02;2.75;;;2.40;99.90;;;;;;5076536;28;20035;-74
2021/01/14 03:16:51;;;;;;;8.88;2.60;;;2.40;99.90;;;;;;5077056;28;20023;-74
2021/01/14 03:19:17;;;;;;;9.30;2.70;;;2.30;99.90;;;;;;5073580;28;20059;-74
2021/01/14 03:21:42;;;;;;;9.77;2.60;;;2.40;99.90;;;;;;5077662;28;20032;-74
2021/01/14 03:24:08;;;;;;;6.55;2.00;;;2.30;99.90;;;;;;5077524;28;20051;-74
2021/01/14 03:26:44;;;;;;;6.32;2.20;;;2.20;99.90;;;;;;5076091;28;20056;-74
2021/01/14 03:29:10;;;;;;;10.80;2.10;;;2.20;99.90;;;;;;5076491;28;20088;-74
2021/01/14 03:31:37;;;;;;;8.48;2.50;;;2.20;99.90;;;;;;5077227;28;20032;-74
2021/01/14 03:34:03;;;;;;;8.15;1.88;;;2.20;99.90;;;;;;5075939;28;20032;-74
2021/01/14 03:36:32;;;;;;;9.63;2.40;;;2.10;99.90;;;;;;5077244;28;20482;-74
2021/01/14 03:39:00;;;;;;;12.13;2.42;;;2.00;99.90;;;;;;5077867;28;20594;-74
2021/01/14 03:41:28;;;;;;;6.53;2.10;;;2.00;99.90;;;;;;5077924;28;20056;-74
2021/01/14 03:43:58;;;;;;;7.57;1.90;;;2.00;99.90;;;;;;5062453;28;20098;-74
2021/01/14 03:46:28;;;;;;;9.30;2.22;;;2.00;99.90;;;;;;5077170;28;20035;-74
2021/01/14 03:48:56;;;;;;;6.38;1.92;;;2.00;99.90;;;;;;5075818;28;20523;-74
2021/01/14 03:51:24;;;;;;;7.63;1.85;;;2.00;99.90;;;;;;5075851;28;20020;-74
2021/01/14 03:53:53;;;;;;;7.30;1.98;;;2.00;99.90;;;;;;5070081;28;20047;-74
2021/01/14 03:56:26;;;;;;;7.93;2.20;;;2.00;99.90;;;;;;5077692;28;20111;-74
2021/01/14 03:58:51;;;;;;;9.10;1.90;;;1.90;99.90;;;;;;5076704;28;20039;-75
2021/01/14 04:01:20;;;;;;;6.80;2.03;;;1.90;99.90;;;;;;5074281;28;20404;-75
2021/01/14 04:03:53;;;;;;;6.93;1.73;;;1.90;99.90;;;;;;5076502;28;20035;-75
2021/01/14 04:06:20;;;;;;;;;;;1.90;99.90;;;;;;5074580;28;20020;-75
2021/01/14 04:08:45;;;;;;;5.63;1.90;;;1.90;99.90;;;;;;5075685;28;19916;-75
2021/01/14 04:11:11;;;;;;;9.07;2.20;;;1.90;99.90;;;;;;5076617;28;20459;-75
2021/01/14 04:13:44;;;;;;;7.25;1.95;;;1.90;99.90;;;;;;5077405;28;20028;-74
2021/01/14 04:16:13;;;;;;;7.05;2.03;;;1.90;99.90;;;;;;5075501;28;20093;-75
2021/01/14 04:18:40;;;;;;;9.05;2.15;;;1.90;99.90;;;;;;5074487;28;20099;-75
2021/01/14 04:21:06;;;;;;;6.03;1.90;;;1.90;99.90;;;;;;5077671;28;20630;-75
2021/01/14 04:23:34;;;;;;;5.80;1.90;;;1.80;99.90;;;;;;5074360;28;20035;-74
2021/01/14 04:26:04;;;;;;;10.23;2.15;;;1.90;99.90;;;;;;5074497;28;20029;-75
2021/01/14 04:28:32;;;;;;;8.07;2.38;;;1.90;99.90;;;;;;5076144;28;20700;-76
2021/01/14 04:30:58;;;;;;;10.27;2.00;;;1.90;99.90;;;;;;5062249;28;20652;-75
2021/01/14 04:33:26;;;;;;;7.68;1.73;;;1.80;99.90;;;;;;5075026;28;20036;-75
2021/01/14 04:35:55;;;;;;;7.20;1.85;;;1.80;99.90;;;;;;5075031;28;20862;-75
2021/01/14 04:38:24;;;;;;;7.50;1.80;;;1.80;99.90;;;;;;5069303;28;20571;-75
2021/01/14 04:40:59;;;;;;;5.78;1.80;;;1.80;99.90;;;;;;5074539;28;20047;-75
2021/01/14 04:43:26;;;;;;;7.30;1.90;;;1.80;99.90;;;;;;5075595;28;20035;-75
2021/01/14 04:46:04;;;;;;;8.75;2.00;;;1.80;99.90;;;;;;5078371;28;20043;-75
2021/01/14 04:48:40;;;;;;;8.80;1.80;;;1.80;99.90;;;;;;5074263;28;20035;-75
2021/01/14 04:51:09;;;;;;;10.63;2.40;;;1.80;99.90;;;;;;5076267;28;20028;-75
2021/01/14 04:53:41;;;;;;;9.60;2.33;;;1.80;99.90;;;;;;5074267;28;20602;-75
2021/01/14 04:56:10;;;;;;;6.03;1.73;;;1.80;99.90;;;;;;5075190;28;20060;-75
2021/01/14 04:58:40;;;;;;;7.43;2.60;;;1.80;99.90;;;;;;5082187;28;20044;-76
2021/01/14 05:01:21;;;;;;;7.22;1.95;;;1.70;99.90;;;;;;5058176;28;20035;-76
2021/01/14 05:03:51;;;;;;;7.63;2.17;;;1.80;99.90;;;;;;5073180;28;20231;-76
2021/01/14 05:06:20;;;;;;;6.18;2.03;;;1.70;99.90;;;;;;5061565;28;20105;-76
2021/01/14 05:08:49;;;;;;;7.35;2.00;;;1.70;99.90;;;;;;5051328;28;20020;-76
2021/01/14 05:11:16;;;;;;;5.82;1.95;;;1.70;99.90;;;;;;5074221;28;20122;-76
2021/01/14 05:13:43;;;;;;;6.05;2.00;;;1.70;99.90;;;;;;5075771;28;20034;-76
2021/01/14 05:16:09;;;;;;;6.85;1.80;;;1.70;99.90;;;;;;5073812;28;20031;-76
2021/01/14 05:18:40;;;;;;;7.05;2.03;;;1.70;99.90;;;;;;5041515;28;20036;-76
2021/01/14 05:21:08;;;;;;;5.75;1.90;;;1.70;99.90;;;;;;5070511;28;20115;-75
2021/01/14 05:23:34;;;;;;;7.07;2.10;;;1.70;99.90;;;;;;5072813;28;20484;-75
2021/01/14 05:26:02;;;;;;;5.53;1.90;;;1.80;99.90;;;;;;5075261;28;20119;-76
2021/01/14 05:28:35;;;;;;;5.15;1.83;;;1.80;99.90;;;;;;5067780;28;20039;-75
2021/01/14 05:31:21;;;;;;;7.13;2.00;;;1.90;99.90;;;;;;5073972;28;20062;-75
2021/01/14 05:33:59;;;;;;;7.40;2.00;;;1.90;99.90;;;;;;5073412;28;20119;-75
2021/01/14 05:36:27;;;;;;;8.57;2.40;;;2.00;99.90;;;;;;5076067;28;20032;-76
2021/01/14 05:38:58;;;;;;;6.28;2.10;;;2.00;99.90;;;;;;5073454;28;20445;-75
2021/01/14 05:41:28;;;;;;;7.07;1.77;;;2.10;99.90;;;;;;5073058;28;20075;-75
2021/01/14 05:43:57;;;;;;;6.18;2.15;;;2.10;99.90;;;;;;5073825;28;20379;-76
2021/01/14 05:46:30;;;;;;;7.78;2.10;;;2.20;99.90;;;;;;5076217;28;20028;-75
2021/01/14 05:48:57;;;;;;;5.43;1.80;;;2.10;99.90;;;;;;5068112;28;20028;-75
2021/01/14 05:51:23;;;;;;;5.55;1.77;;;2.10;99.90;;;;;;5066608;28;20354;-76
2021/01/14 05:53:59;;;;;;;8.18;2.22;;;2.10;99.90;;;;;;5074201;28;20024;-76
2021/01/14 05:56:48;;;;;;;5.50;1.80;;;2.10;99.90;;;;;;5074283;28;20321;-76
2021/01/14 05:59:15;;;;;;;7.40;1.90;;;2.00;99.90;;;;;;5072914;28;20033;-76
2021/01/14 06:02:01;;;;;;;6.65;1.85;;;2.10;99.90;;;;;;5072585;28;20124;-76
2021/01/14 06:04:32;;;;;;;4.85;1.50;;;2.20;99.90;;;;;;5073684;28;20044;-76
2021/01/14 06:07:07;;;;;;;4.68;1.67;;;2.20;99.90;;;;;;5071932;28;20035;-76
2021/01/14 06:09:45;;;;;;;7.70;1.77;;;2.20;99.90;;;;;;5064521;28;20056;-76
2021/01/14 06:12:14;;;;;;;7.10;2.00;;;2.10;99.90;;;;;;5073917;28;21924;-76
2021/01/14 06:14:43;;;;;;;5.75;2.05;;;2.10;99.90;;;;;;5080879;28;20047;-76
2021/01/14 06:17:11;;;;;;;4.22;1.67;;;2.10;99.90;;;;;;5073794;28;20055;-76
2021/01/14 06:19:37;;;;;;;5.93;1.75;;;2.10;99.90;;;;;;5073725;28;20053;-76
2021/01/14 06:22:03;;;;;;;5.88;1.60;;;2.10;99.90;;;;;;5057670;28;20024;-76
2021/01/14 06:24:36;;;;;;;4.25;1.90;;;2.10;99.90;;;;;;5074233;28;20098;-76
2021/01/14 06:27:05;;;;;;;7.32;2.20;;;2.10;99.90;;;;;;5068296;28;20035;-76
2021/01/14 06:29:36;;;;;;;5.35;1.80;;;2.10;99.90;;;;;;5072655;28;20079;-76
2021/01/14 06:32:18;;;;;;;6.60;1.70;;;2.00;99.90;;;;;;5076978;28;20603;-76
2021/01/14 06:34:53;;;;;;;5.93;1.90;;;2.00;99.90;;;;;;5076861;28;20398;-76
2021/01/14 06:37:24;;;;;;;6.40;1.95;;;2.00;99.90;;;;;;5072725;28;20043;-77
2021/01/14 06:39:56;;;;;;;7.00;2.10;;;2.10;99.90;;;;;;5071244;28;20028;-76
2021/01/14 06:42:29;;;;;;;9.55;1.98;;;2.00;99.90;;;;;;5073434;28;20035;-76
2021/01/14 06:45:01;;;;;;;5.15;1.75;;;1.90;99.90;;;;;;5073530;28;20112;-77
2021/01/14 06:47:37;;;;;;;3.85;1.70;;;1.90;99.90;;;;;;5071727;28;20037;-76
2021/01/14 06:50:09;;;;;;;5.85;1.90;;;1.80;99.90;;;;;;5061686;28;20111;-76
2021/01/14 06:52:41;;;;;;;7.05;1.88;;;1.90;99.90;;;;;;5076620;28;20341;-76
2021/01/14 06:55:11;;;;;;;9.77;2.20;;;1.90;99.90;;;;;;5076274;28;20039;-76
2021/01/14 06:57:39;;;;;;;6.10;2.03;;;1.90;99.90;;;;;;5080063;28;20046;-76
2021/01/14 07:00:10;;;;;;;6.82;2.13;;;1.90;99.90;;;;;;5071261;28;20028;-76
2021/01/14 07:02:36;;;;;;;7.15;2.10;;;2.00;99.90;;;;;;5078028;28;20055;-76
2021/01/14 07:05:03;;;;;;;7.70;2.40;;;2.00;99.90;;;;;;5078011;28;20419;-76
2021/01/14 07:07:47;;;;;;;6.75;2.97;;;2.00;99.90;;;;;;5076194;28;20110;-76
2021/01/14 07:10:18;;;;;;;8.68;2.35;;;2.10;99.90;;;;;;5077405;28;20115;-76
2021/01/14 07:12:46;;;;;;;5.07;2.10;;;2.00;99.90;;;;;;5083370;28;20032;-76
2021/01/14 07:15:13;;;;;;;4.97;2.20;;;2.00;99.90;;;;;;5077746;28;20043;-76
2021/01/14 07:17:43;;;;;;;4.95;2.30;;;2.00;99.90;;;;;;5076533;28;20401;-76
2021/01/14 07:20:15;;;;;;;5.78;2.55;;;2.00;99.90;;;;;;5076973;28;20055;-77
2021/01/14 07:22:53;;;;;;;7.70;2.47;;;2.00;99.90;;;;;;5076695;28;20112;-76
2021/01/14 07:25:19;;;;;;;7.50;2.40;;;2.00;99.90;;;;;;5066708;28;20048;-76
2021/01/14 07:27:54;;;;;;;6.13;2.50;;;2.00;99.90;;;;;;5071799;28;20472;-74
2021/01/14 07:30:27;;;;;;;7.93;2.17;;;2.00;99.90;;;;;;5059306;28;20048;-73
2021/01/14 07:33:04;;;;;;;5.90;2.38;;;1.90;99.90;;;;;;5072175;28;20059;-76
2021/01/14 07:35:34;;;;;;;7.95;2.40;;;2.00;99.90;;;;;;5089111;28;20110;-76
2021/01/14 07:37:59;;;;;;;9.05;2.60;;;2.00;99.90;;;;;;5090000;28;20036;-76
2021/01/14 07:40:29;;;;;;;10.75;2.88;;;1.90;99.90;;;;;;5085966;28;20036;-76
2021/01/14 07:43:00;;;;;;;6.65;2.53;;;1.80;99.90;;;;;;5087186;28;20169;-76
2021/01/14 07:45:26;;;;;;;5.68;2.10;;;1.80;99.90;;;;;;5085259;28;20032;-76
2021/01/14 07:47:51;;;;;;;8.02;2.55;;;1.80;99.90;;;;;;5072496;28;20669;-76
2021/01/14 07:50:24;;;;;;;9.10;2.70;;;1.80;99.90;;;;;;5075267;28;20103;-76
2021/01/14 07:52:53;;;;;;;7.35;2.80;;;1.70;99.90;;;;;;5088256;28;20023;-76
2021/01/14 07:55:32;;;;;;;9.27;2.60;;;1.60;99.90;;;;;;5100470;27;20028;-76
2021/01/14 07:58:08;;;;;;;5.60;2.50;;;1.60;99.90;;;;;;5086925;28;20123;-77
2021/01/14 08:00:34;;;;;;;7.20;2.78;;;1.50;99.90;;;;;;5071221;28;20168;-76
2021/01/14 08:03:18;;;;;;;6.03;2.38;;;1.50;99.90;;;;;;5077851;28;20040;-76
2021/01/14 08:05:44;;;;;;;5.55;2.30;;;1.50;99.90;;;;;;5090838;28;20016;-76
2021/01/14 08:08:31;;;;;;;7.38;3.05;;;1.50;99.90;;;;;;5087397;28;20036;-75
2021/01/14 08:11:13;;;;;;;7.25;2.72;;;1.50;99.90;;;;;;5086393;28;20087;-76
2021/01/14 08:14:06;;;;;;;5.60;2.43;;;1.50;99.90;;;;;;5088840;28;20512;-76
2021/01/14 08:16:34;;;;;;;7.63;2.30;;;1.50;99.90;;;;;;5093214;28;20018;-75
2021/01/14 08:19:28;;;;;;;5.57;2.40;;;1.50;99.90;;;;;;5088038;28;20024;-75
2021/01/14 08:22:05;;;;;;;6.47;2.30;;;1.60;99.90;;;;;;5092716;28;20052;-74
2021/01/14 08:24:48;;;;;;;8.88;2.67;;;1.60;99.90;;;;;;5087196;28;20044;-74
2021/01/14 08:27:26;;;;;;;5.68;2.35;;;1.70;99.90;;;;;;5086907;28;20113;-74
2021/01/14 08:30:05;;;;;;;7.18;2.60;;;1.70;99.90;;;;;;5090927;28;20563;-75
2021/01/14 08:32:38;;;;;;;7.38;2.35;;;1.80;99.90;;;;;;5092077;28;20191;-73
2021/01/14 08:35:16;;;;;;;7.13;2.20;;;1.80;99.90;;;;;;5058983;28;21969;-72
2021/01/14 08:38:00;;;;;;;7.20;2.65;;;1.90;99.90;;;;;;5085818;28;20028;-74
2021/01/14 08:40:35;;;;;;;8.40;2.50;;;1.90;99.90;;;;;;5087396;28;20084;-75
2021/01/14 08:43:17;;;;;;;6.72;2.33;;;1.90;99.90;;;;;;5084729;28;20034;-75
2021/01/14 08:45:50;;;;;;;5.57;2.33;;;1.90;99.90;;;;;;5089777;28;20055;-79
2021/01/14 08:48:22;;;;;;;7.35;2.47;;;2.00;99.90;;;;;;5093373;28;20042;-74
2021/01/14 08:50:59;;;;;;;5.05;1.92;;;2.00;99.90;;;;;;5091768;28;20023;-74
2021/01/14 08:53:29;;;;;;;7.30;2.83;;;2.00;99.90;;;;;;5093205;28;20027;-75
2021/01/14 08:55:58;;;;;;;6.47;2.60;;;1.90;99.90;;;;;;5087362;28;20024;-74
2021/01/14 08:58:46;;;;;;;8.23;2.58;;;1.90;99.90;;;;;;5086991;28;20468;-75
2021/01/14 09:01:21;;;;;;;6.82;2.47;;;2.00;99.90;;;;;;5086732;28;20032;-75
2021/01/14 09:03:50;;;;;;;7.45;2.30;;;2.00;99.90;;;;;;5085952;28;20036;-75
2021/01/14 09:06:32;;;;;;;6.65;2.58;;;2.10;99.90;;;;;;5088903;28;20134;-75
2021/01/14 09:09:02;;;;;;;6.43;2.40;;;2.00;99.90;;;;;;5084198;28;20017;-75
2021/01/14 09:11:28;;;;;;;9.70;2.58;;;2.00;99.90;;;;;;5085075;28;20055;-74
2021/01/14 09:14:07;;;;;;;6.60;2.25;;;2.00;99.90;;;;;;5086602;28;20031;-75
2021/01/14 09:16:35;;;;;;;8.45;2.70;;;2.00;99.90;;;;;;5085892;28;20476;-74
2021/01/14 09:19:12;;;;;;;4.90;2.30;;;1.90;99.90;;;;;;5085140;28;20028;-75
2021/01/14 09:21:41;;;;;;;5.03;2.30;;;2.00;99.90;;;;;;5087098;28;20024;-75
2021/01/14 09:24:10;;;;;;;8.85;2.60;;;2.00;99.90;;;;;;5089032;28;20544;-74
2021/01/14 09:26:41;;;;;;;6.10;2.10;;;2.00;99.90;;;;;;5073053;28;20047;-74
2021/01/14 09:29:07;;;;;;;9.07;2.42;;;2.00;99.90;;;;;;5088093;28;20016;-74
2021/01/14 09:31:36;;;;;;;5.68;2.20;;;2.00;99.90;;;;;;5084793;28;20052;-77
2021/01/14 09:34:02;;;;;;;5.25;2.13;;;2.00;99.90;;;;;;5072098;28;20456;-74
2021/01/14 09:36:30;;;;;;;7.65;2.50;;;2.10;99.90;;;;;;5090139;28;20032;-77
2021/01/14 09:39:06;;;;;;;5.28;2.15;;;2.10;99.90;;;;;;5090999;28;20051;-75
2021/01/14 09:41:36;;;;;;;7.10;2.40;;;2.10;99.90;;;;;;5080053;28;20028;-75
2021/01/14 09:44:09;;;;;;;6.80;2.30;;;2.10;99.90;;;;;;5086068;28;20028;-75
2021/01/14 09:46:37;;;;;;;;;;;2.10;99.90;;;;;;5091328;28;20012;-75
2021/01/14 09:49:09;;;;;;;7.32;2.22;;;2.10;99.90;;;;;;5086002;28;20272;-75
2021/01/14 09:51:35;;;;;;;8.05;2.40;;;2.00;99.90;;;;;;5069147;28;20028;-75
2021/01/14 09:54:04;;;;;;;7.43;2.25;;;2.00;99.90;;;;;;5085769;28;20151;-75
2021/01/14 09:56:46;;;;;;;6.20;1.92;;;2.00;99.90;;;;;;5084240;28;20031;-75
2021/01/14 09:59:34;;;;;;;6.15;2.45;;;2.00;99.90;;;;;;5075711;28;20056;-74
2021/01/14 10:02:26;;;;;;;6.60;1.90;;;2.10;99.90;;;;;;5072251;28;20128;-75
2021/01/14 10:04:55;;;;;;;7.53;2.10;;;2.10;99.90;;;;;;5085791;28;20024;-75
2021/01/14 10:07:25;;;;;;;5.88;2.17;;;2.10;99.90;;;;;;5086446;28;20031;-74
2021/01/14 10:09:52;;;;;;;6.40;2.20;;;2.10;99.90;;;;;;5078169;28;20020;-74
2021/01/14 10:12:20;;;;;;;6.78;2.13;;;2.10;99.90;;;;;;5088448;28;20035;-74
2021/01/14 10:14:47;;;;;;;6.05;2.10;;;2.20;99.90;;;;;;5088365;28;20027;-74
2021/01/14 10:17:17;;;;;;;4.70;2.25;;;2.20;99.90;;;;;;5073637;28;20173;-74
2021/01/14 10:19:52;;;;;;;4.03;1.85;;;2.20;99.90;;;;;;5074965;28;20032;-75
2021/01/14 10:22:23;;;;;;;4.95;2.00;;;2.30;99.90;;;;;;5070944;28;20036;-74
2021/01/14 10:24:53;;;;;;;5.28;2.17;;;2.30;99.90;;;;;;5089131;28;20599;-74
2021/01/14 10:27:20;;;;;;;6.80;1.92;;;2.30;99.90;;;;;;5090169;28;20046;-75
2021/01/14 10:29:46;;;;;;;7.85;2.60;;;2.30;99.90;;;;;;5092076;28;20060;-74
2021/01/14 10:32:24;;;;;;;4.70;2.00;;;2.40;99.90;;;;;;5077548;28;20155;-75
2021/01/14 10:34:56;;;;;;;5.30;2.00;;;2.40;99.90;;;;;;5089228;28;20476;-75
2021/01/14 10:37:31;;;;;;;4.40;2.00;;;2.30;99.90;;;;;;5089547;28;20085;-75
2021/01/14 10:40:01;;;;;;;4.88;2.20;;;2.40;99.90;;;;;;5091721;28;20127;-75
2021/01/14 10:42:37;;;;;;;5.25;2.05;;;2.50;99.90;;;;;;5089793;28;20023;-74
2021/01/14 10:45:07;;;;;;;3.72;1.75;;;2.50;99.90;;;;;;5093265;28;20028;-75
2021/01/14 10:47:33;;;;;;;6.93;2.20;;;2.60;99.90;;;;;;5087209;28;20499;-75
2021/01/14 10:49:59;;;;;;;4.82;2.10;;;2.60;99.90;;;;;;5091333;28;20029;-74
2021/01/14 10:52:27;;;;;;;6.85;2.25;;;2.70;99.90;;;;;;5093515;28;20039;-74
2021/01/14 10:55:02;;;;;;;6.30;2.42;;;2.70;99.90;;;;;;5092412;28;20384;-74
2021/01/14 10:57:53;;;;;;;6.20;2.28;;;2.80;99.90;;;;;;5088806;28;20024;-74
2021/01/14 11:00:33;;;;;;;7.30;2.33;;;2.80;99.90;;;;;;5094853;28;20101;-74
2021/01/14 11:03:07;;;;;;;6.10;2.28;;;2.80;99.90;;;;;;5091617;28;20028;-75
2021/01/14 11:05:52;;;;;;;5.47;2.10;;;2.80;99.90;;;;;;5092591;28;20023;-75
2021/01/14 11:08:24;;;;;;;5.50;2.20;;;2.90;99.90;;;;;;5090359;28;20047;-75
2021/01/14 11:11:08;;;;;;;5.22;2.47;;;2.90;99.90;;;;;;5089091;28;20681;-74
2021/01/14 11:13:38;;;;;;;4.97;2.50;;;2.80;99.90;;;;;;5089414;28;20306;-74
2021/01/14 11:16:08;;;;;;;7.65;2.42;;;2.90;99.90;;;;;;5089782;28;20035;-75
2021/01/14 11:18:45;;;;;;;4.45;2.28;;;2.90;99.90;;;;;;5090536;28;20025;-74
2021/01/14 11:21:14;;;;;;;7.55;2.45;;;2.90;99.90;;;;;;5063789;28;20040;-74
2021/01/14 11:23:43;;;;;;;7.90;3.00;;;2.90;99.90;;;;;;5071748;28;20020;-74
2021/01/14 11:26:11;;;;;;;5.20;2.25;;;3.00;99.90;;;;;;5091979;28;20028;-74
2021/01/14 11:28:41;;;;;;;6.05;2.50;;;3.00;99.90;;;;;;5072922;28;20112;-74
2021/01/14 11:31:10;;;;;;;6.82;2.50;;;3.00;99.90;;;;;;5065180;28;20483;-74
2021/01/14 11:33:38;;;;;;;6.03;2.13;;;3.10;99.90;;;;;;5087987;28;20028;-74
2021/01/14 11:36:08;;;;;;;7.53;2.53;;;3.10;99.90;;;;;;5087380;28;21025;-74
2021/01/14 11:38:36;;;;;;;5.82;2.50;;;3.00;99.90;;;;;;5089156;28;20031;-74
2021/01/14 11:41:02;;;;;;;6.10;2.22;;;3.00;99.90;;;;;;4732230;28;10000109;-74
2021/01/14 11:43:28;;;;;;;6.38;2.22;;;3.00;99.90;;;;;;5087588;28;20469;-75
2021/01/14 11:45:54;;;;;;;6.40;2.30;;;3.00;99.90;;;;;;5084786;28;20047;-75
2021/01/14 11:48:22;;;;;;;4.47;2.17;;;3.00;99.90;;;;;;5084026;28;20029;-75
2021/01/14 11:50:47;;;;;;;5.50;2.28;;;3.00;99.90;;;;;;5091717;28;20133;-77
2021/01/14 11:53:14;;;;;;;6.95;2.30;;;3.00;99.90;;;;;;5076566;28;20028;-75
2021/01/14 11:55:44;;;;;;;6.90;2.45;;;3.10;99.90;;;;;;5088491;28;20168;-75
2021/01/14 11:58:12;;;;;;;6.03;2.38;;;3.10;99.90;;;;;;5086887;28;20639;-75
2021/01/14 12:00:45;;;;;;;6.15;2.30;;;3.10;99.90;;;;;;5085797;28;20043;-75
2021/01/14 12:03:13;;;;;;;6.53;2.40;;;3.20;99.90;;;;;;5084046;28;20099;-74
2021/01/14 12:05:41;;;;;;;5.75;2.45;;;3.20;99.90;;;;;;5080003;28;20025;-74
2021/01/14 12:08:07;;;;;;;5.57;2.38;;;3.20;99.90;;;;;;5090449;28;20036;-74
2021/01/14 12:10:32;;;;;;;5.97;2.65;;;3.30;99.90;;;;;;5087522;28;20021;-75
2021/01/14 12:12:58;;;;;;;7.07;2.80;;;3.20;99.90;;;;;;5087213;28;20051;-74
2021/01/14 12:15:26;;;;;;;5.70;2.63;;;3.30;99.90;;;;;;5084571;28;20611;-74
2021/01/14 12:17:52;;;;;;;6.32;2.67;;;3.30;99.90;;;;;;5087139;28;20063;-74
2021/01/14 12:20:17;;;;;;;6.53;2.50;;;3.30;99.90;;;;;;5082449;28;20110;-74
2021/01/14 12:22:45;;;;;;;6.25;2.50;;;3.30;99.90;;;;;;5088038;28;20040;-74
2021/01/14 12:25:13;;;;;;;6.60;2.78;;;3.30;99.90;;;;;;5084596;28;20063;-74
2021/01/14 12:27:40;;;;;;;5.40;2.72;;;3.30;99.90;;;;;;5087592;28;20650;-74
2021/01/14 12:30:06;;;;;;;5.97;3.00;;;3.30;99.90;;;;;;5089692;28;20888;-75
2021/01/14 12:32:34;;;;;;;7.13;2.88;;;3.30;99.90;;;;;;5074562;28;20035;-74
2021/01/14 12:35:03;;;;;;;5.85;2.70;;;3.30;99.90;;;;;;5086533;28;20112;-74
2021/01/14 12:37:37;;;;;;;6.10;3.00;;;3.30;99.90;;;;;;5088689;28;20047;-74
2021/01/14 12:40:07;;;;;;;5.93;2.97;;;3.30;99.90;;;;;;5083519;28;20615;-76
2021/01/14 12:42:35;;;;;;;7.07;3.00;;;3.30;99.90;;;;;;4733908;28;10000053;-74
2021/01/14 12:45:07;;;;;;;5.70;2.70;;;3.30;99.90;;;;;;5084597;28;20042;-74
2021/01/14 12:47:32;;;;;;;6.25;2.90;;;3.30;99.90;;;;;;5075236;28;20886;-74
2021/01/14 12:50:03;;;;;;;7.75;3.28;;;3.30;99.90;;;;;;5083745;28;20032;-74
2021/01/14 12:52:29;;;;;;;6.32;3.15;;;3.30;99.90;;;;;;5082450;28;20039;-74
2021/01/14 12:54:59;;;;;;;6.07;3.05;;;3.20;99.90;;;;;;5087112;28;20372;-74
2021/01/14 12:57:27;;;;;;;6.47;3.20;;;3.30;99.90;;;;;;5083369;28;20043;-74
2021/01/14 12:59:53;;;;;;;5.90;3.53;;;3.30;99.90;;;;;;5088235;28;20020;-73
2021/01/14 13:02:21;;;;;;;7.63;3.25;;;3.30;99.90;;;;;;5084986;28;20024;-74
2021/01/14 13:04:47;;;;;;;6.68;3.60;;;3.20;99.90;;;;;;5086652;28;20031;-73
2021/01/14 13:07:12;;;;;;;8.88;4.18;;;3.20;99.90;;;;;;5084969;28;20092;-73
2021/01/14 13:09:38;;;;;;;7.25;3.60;;;3.20;99.90;;;;;;5085256;28;20043;-73
2021/01/14 13:12:04;;;;;;;6.55;3.38;;;3.20;99.90;;;;;;5081733;28;20032;-74
2021/01/14 13:14:30;;;;;;;7.88;3.72;;;3.20;99.90;;;;;;5084008;28;20046;-73